Time;durP1;ratioP1;P1;durP2;ratioP2;P2;SDS_P1;SDS_P2;PMS_P1;PMS_P2;Temp;Humidity;BMP_temperature;BMP_pressure;BME280_temperature;BME280_humidity;BME280_pressure;Samples;Min_cycle;Max_cycle;Signal;HPM_P1;HPM_P2
2023/12/02 00:03:14;;;;;;;20.05;6.25;;;;;;;4.47;69.23;98069.72;7767052;32;37669;-83
2023/12/02 00:07:30;;;;;;;13.23;6.00;;;;;;;4.74;68.27;98093.66;7766631;32;39670;-82
2023/12/02 00:11:52;;;;;;;12.70;5.90;;;;;;;4.66;68.75;98078.03;7766609;32;39952;-81
2023/12/02 00:16:09;;;;;;;10.75;5.72;;;;;;;4.90;67.70;98075.53;7766342;32;38520;-83
2023/12/02 00:20:26;;;;;;;12.57;6.15;;;;;;;4.60;68.83;98081.81;7766526;32;37156;-82
2023/12/02 00:24:43;;;;;;;11.10;6.15;;;;;;;4.77;68.79;98071.50;7752613;32;39174;-81
2023/12/02 00:28:59;;;;;;;9.45;5.07;;;;;;;4.22;70.45;98090.25;7766381;32;39922;-82
2023/12/02 00:33:15;;;;;;;15.40;6.70;;;;;;;4.76;69.08;98075.31;7766294;32;37902;-81
2023/12/02 00:37:32;;;;;;;13.48;6.37;;;;;;;4.58;69.85;98078.59;7767042;32;36746;-82
2023/12/02 00:41:49;;;;;;;11.30;5.65;;;;;;;4.74;69.13;98085.53;7766246;32;39580;-82
2023/12/02 00:46:06;;;;;;;9.77;6.15;;;;;;;4.86;69.05;98077.97;7766281;32;40766;-82
2023/12/02 00:50:23;;;;;;;8.05;5.37;;;;;;;4.83;69.01;98054.22;7766274;32;37827;-82
2023/12/02 00:54:39;;;;;;;15.88;5.97;;;;;;;4.97;68.72;98059.03;7766117;32;36796;-82
2023/12/02 00:58:55;;;;;;;12.30;5.53;;;;;;;4.60;69.67;98057.53;7765569;32;39193;-81
2023/12/02 01:03:11;;;;;;;10.60;6.37;;;;;;;4.65;69.85;98062.91;7766080;32;40828;-82
2023/12/02 01:07:28;;;;;;;8.80;5.75;;;;;;;4.96;68.78;98068.19;7765945;32;37635;-82
2023/12/02 01:11:44;;;;;;;16.23;6.40;;;;;;;4.74;69.87;98063.94;7765960;32;37696;-81
2023/12/02 01:16:00;;;;;;;11.00;5.72;;;;;;;4.53;70.24;98081.31;7765815;32;39831;-82
2023/12/02 01:20:17;;;;;;;12.35;5.65;;;;;;;4.56;70.60;98086.97;7765730;32;39939;-80
2023/12/02 01:24:33;;;;;;;10.05;5.75;;;;;;;4.51;70.90;98085.06;7765685;32;37968;-81
2023/12/02 01:28:49;;;;;;;13.02;6.12;;;;;;;4.98;69.05;98087.63;7765863;32;37705;-81
2023/12/02 01:33:06;;;;;;;12.07;5.80;;;;;;;4.71;69.81;98086.13;7784701;32;38942;-82
2023/12/02 01:37:22;;;;;;;10.55;6.10;;;;;;;4.89;68.76;98069.28;7765467;32;40623;-82
2023/12/02 01:41:39;;;;;;;8.88;5.50;;;;;;;5.12;68.23;98067.03;7765513;32;38627;-83
2023/12/02 01:45:56;;;;;;;11.65;5.53;;;;;;;5.02;68.42;98064.41;7765585;32;36974;-81
2023/12/02 01:50:13;;;;;;;11.25;5.68;;;;;;;5.01;68.66;98044.66;7765468;32;39903;-82
2023/12/02 01:54:30;;;;;;;10.75;6.00;;;;;;;5.19;68.41;98037.81;7765533;32;39922;-81
2023/12/02 01:58:50;;;;;;;11.15;6.20;;;;;;;4.93;69.24;98036.34;7765035;32;37667;-82
2023/12/02 02:03:06;;;;;;;10.75;6.18;;;;;;;5.01;68.82;98036.56;7765393;32;37491;-82
2023/12/02 02:07:23;;;;;;;11.25;6.10;;;;;;;4.98;69.22;98044.41;7764611;32;40006;-83
2023/12/02 02:11:39;;;;;;;10.30;5.40;;;;;;;5.09;69.05;98024.38;7751230;32;39886;-81
2023/12/02 02:15:55;;;;;;;15.63;6.20;;;;;;;4.96;69.78;98014.97;7765071;32;37857;-82
2023/12/02 02:20:12;;;;;;;12.25;6.20;;;;;;;4.83;70.20;98016.41;7751028;32;37054;-82
2023/12/02 02:24:28;;;;;;;10.32;5.90;;;;;;;4.74;69.80;98018.06;7764939;32;40054;-81
2023/12/02 02:28:45;;;;;;;12.77;6.10;;;;;;;5.16;68.68;98008.66;7765522;32;39904;-81
2023/12/02 02:33:01;;;;;;;10.13;6.15;;;;;;;5.05;68.99;98013.31;7764686;32;37952;-81
2023/12/02 02:37:17;;;;;;;11.73;6.37;;;;;;;5.15;69.07;98007.03;7764706;32;37764;-81
2023/12/02 02:41:34;;;;;;;10.68;5.90;;;;;;;5.05;69.18;97996.28;7764639;32;38973;-80
2023/12/02 02:45:50;;;;;;;14.32;5.93;;;;;;;4.94;69.25;97983.94;7764497;32;40805;-81
2023/12/02 02:50:07;;;;;;;11.02;6.22;;;;;;;4.97;69.66;97983.41;7764359;32;38624;-81
2023/12/02 02:54:24;;;;;;;12.10;6.47;;;;;;;5.46;68.06;97979.81;7764480;32;37535;-81
2023/12/02 02:58:40;;;;;;;12.43;5.78;;;;;;;5.31;68.80;97979.91;7764098;32;38957;-82
2023/12/02 03:02:56;;;;;;;15.90;5.82;;;;;;;5.21;69.27;97995.13;7764871;32;40861;-81
2023/12/02 03:07:12;;;;;;;11.82;6.10;;;;;;;5.07;69.35;97988.72;7765145;32;38819;-81
2023/12/02 03:11:29;;;;;;;15.45;6.47;;;;;;;5.11;69.35;97973.56;7763974;32;37001;-82
2023/12/02 03:15:45;;;;;;;11.82;6.22;;;;;;;5.04;69.94;97967.69;7763871;32;39263;-82
2023/12/02 03:20:01;;;;;;;9.70;6.22;;;;;;;5.15;69.34;97974.63;7766577;32;39945;-81
2023/12/02 03:24:18;;;;;;;12.60;6.65;;;;;;;5.19;69.07;97975.69;7785922;32;38394;-81
2023/12/02 03:28:34;;;;;;;11.25;6.07;;;;;;;5.26;69.18;97967.28;7794202;32;37844;-82
2023/12/02 03:32:51;;;;;;;9.82;5.93;;;;;;;4.86;70.35;97972.66;7794170;32;39169;-80
2023/12/02 03:37:07;;;;;;;11.32;5.18;;;;;;;5.16;69.66;97957.34;7794048;32;40962;-80
2023/12/02 03:41:23;;;;;;;11.57;6.32;;;;;;;5.49;67.92;97957.63;7793920;32;37769;-80
2023/12/02 03:45:40;;;;;;;10.45;6.15;;;;;;;5.30;69.09;97948.59;7794243;32;36529;-81
2023/12/02 03:49:56;;;;;;;12.30;6.60;;;;;;;5.47;68.39;97943.59;7794037;32;39270;-80
2023/12/02 03:54:13;;;;;;;11.48;6.15;;;;;;;5.36;68.36;97942.06;7793836;32;39942;-79
2023/12/02 03:58:30;;;;;;;14.02;5.75;;;;;;;4.85;69.92;97945.94;7793411;32;38686;-80
2023/12/02 04:02:47;;;;;;;12.77;6.20;;;;;;;5.09;69.67;97951.44;7774630;32;37862;-80
2023/12/02 04:07:04;;;;;;;14.23;6.40;;;;;;;5.18;68.89;97955.16;7766673;32;40086;-81
2023/12/02 04:11:21;;;;;;;14.60;6.15;;;;;;;5.06;69.93;97952.00;7766482;32;40869;-81
2023/12/02 04:15:37;;;;;;;14.15;6.28;;;;;;;5.15;69.41;97953.00;7766726;32;37840;-80
2023/12/02 04:19:53;;;;;;;14.52;6.75;;;;;;;4.85;70.39;97960.22;7793541;32;37233;-82
2023/12/02 04:24:10;;;;;;;12.93;6.15;;;;;;;5.01;69.95;97960.13;7793562;32;37697;-81
2023/12/02 04:28:26;;;;;;;11.63;6.53;;;;;;;5.15;69.43;97946.81;7793103;32;40896;-81
2023/12/02 04:32:42;;;;;;;10.68;6.22;;;;;;;5.04;69.67;97951.47;7776321;32;37887;-82
2023/12/02 04:36:59;;;;;;;12.52;6.70;;;;;;;5.01;69.77;97968.25;7766323;32;37828;-80
2023/12/02 04:41:16;;;;;;;15.40;6.50;;;;;;;5.04;69.30;97954.97;7766129;32;39298;-80
2023/12/02 04:45:32;;;;;;;11.55;6.18;;;;;;;5.41;68.22;97944.72;7766198;32;40664;-82
2023/12/02 04:49:48;;;;;;;12.18;6.05;;;;;;;5.21;69.05;97943.78;7766012;32;37960;-81
2023/12/02 04:54:05;;;;;;;13.75;6.28;;;;;;;5.30;68.91;97951.31;7765852;32;37105;-82
2023/12/02 04:58:22;;;;;;;13.32;6.82;;;;;;;5.20;69.22;97939.47;7766115;32;40029;-82
2023/12/02 05:02:38;;;;;;;15.57;6.60;;;;;;;5.32;70.72;97941.81;7768599;32;39998;-82
2023/12/02 05:06:55;;;;;;;12.07;6.62;;;;;;;5.38;69.61;97938.00;7766043;32;38551;-83
2023/12/02 05:11:19;;;;;;;12.63;6.70;;;;;;;5.42;69.06;97954.44;7774239;32;36725;-81
2023/12/02 05:15:35;;;;;;;18.50;6.85;;;;;;;5.60;68.53;97959.13;7792660;32;40106;-81
2023/12/02 05:19:52;;;;;;;12.73;6.32;;;;;;;4.88;70.62;97951.56;7792531;32;40782;-83
2023/12/02 05:24:08;;;;;;;16.25;6.68;;;;;;;5.45;69.43;97940.38;7792785;32;38602;-83
2023/12/02 05:28:25;;;;;;;14.45;6.62;;;;;;;5.57;68.58;97915.66;7792782;32;35872;-82
2023/12/02 05:32:41;;;;;;;13.32;5.87;;;;;;;5.36;69.22;97915.03;7792838;32;39328;-82
2023/12/02 05:36:58;;;;;;;16.73;6.55;;;;;;;5.49;68.67;97919.78;7779121;32;39819;-81
2023/12/02 05:41:14;;;;;;;20.92;6.72;;;;;;;5.48;68.74;97923.56;7764300;32;37941;-81
2023/12/02 05:45:31;;;;;;;12.15;6.90;;;;;;;5.54;68.73;97944.06;7765485;32;36965;-80
2023/12/02 05:49:47;;;;;;;16.27;6.97;;;;;;;5.29;69.75;97928.06;7765370;32;40023;-82
2023/12/02 05:54:06;;;;;;;14.70;7.07;;;;;;;5.64;68.27;97922.34;7765250;32;40721;-82
2023/12/02 05:58:22;;;;;;;17.87;7.07;;;;;;;5.40;69.03;97924.19;7764917;32;37477;-82
2023/12/02 06:02:39;;;;;;;12.32;6.45;;;;;;;5.24;69.44;97921.63;7765338;32;37010;-81
2023/12/02 06:06:55;;;;;;;16.87;7.18;;;;;;;5.49;69.34;97936.00;7765031;32;39902;-81
2023/12/02 06:11:11;;;;;;;17.55;7.07;;;;;;;5.65;69.13;97928.56;7765151;32;39912;-81
2023/12/02 06:15:28;;;;;;;18.48;7.10;;;;;;;5.33;69.79;97932.62;7765081;32;37530;-80
2023/12/02 06:19:44;;;;;;;15.30;7.10;;;;;;;5.60;69.14;97932.09;7764987;32;37056;-81
2023/12/02 06:24:01;;;;;;;23.33;7.45;;;;;;;5.76;68.79;97940.06;7765115;32;39263;-81
2023/12/02 06:28:17;;;;;;;11.63;6.25;;;;;;;5.41;69.91;97969.03;7765183;32;40053;-80
2023/12/02 06:32:33;;;;;;;17.15;7.68;;;;;;;5.50;69.34;97969.22;7773347;32;37816;-82
2023/12/02 06:36:50;;;;;;;16.73;7.30;;;;;;;5.59;69.52;97957.53;7764722;32;36725;-81
2023/12/02 06:41:06;;;;;;;12.75;6.82;;;;;;;5.71;69.14;97945.53;7767146;32;39172;-81
2023/12/02 06:45:23;;;;;;;16.92;7.55;;;;;;;5.79;68.87;97956.53;7764368;32;39935;-79
2023/12/02 06:49:39;;;;;;;14.07;7.30;;;;;;;5.76;69.15;97959.81;7765154;32;37875;-81
2023/12/02 06:53:56;;;;;;;16.65;7.28;;;;;;;5.53;69.44;97958.66;7790486;32;38108;-80
2023/12/02 06:58:13;;;;;;;22.52;7.37;;;;;;;5.75;69.07;97965.50;7770450;32;39270;-79
2023/12/02 07:02:29;;;;;;;13.45;6.12;;;;;;;5.67;69.41;97956.09;7763993;32;39943;-79
2023/12/02 07:06:45;;;;;;;20.02;7.00;;;;;;;5.92;67.86;97951.56;7763991;32;38644;-80
2023/12/02 07:11:03;;;;;;;15.05;7.10;;;;;;;5.79;68.64;97958.44;7761277;32;37699;-79
2023/12/02 07:15:20;;;;;;;16.80;6.60;;;;;;;5.68;69.25;97948.81;7760711;32;38920;-80
2023/12/02 07:19:36;;;;;;;22.37;7.30;;;;;;;5.71;69.58;97953.63;7761166;32;39803;-80
2023/12/02 07:23:53;;;;;;;19.58;7.05;;;;;;;5.94;68.87;97957.47;7762339;32;38585;-81
2023/12/02 07:28:09;;;;;;;15.60;7.62;;;;;;;5.91;68.65;97956.16;7763504;32;37110;-80
2023/12/02 07:32:25;;;;;;;14.13;6.65;;;;;;;6.00;68.48;97949.06;7763350;32;40148;-79
2023/12/02 07:36:42;;;;;;;24.37;7.25;;;;;;;5.95;68.50;97932.03;7763368;32;40607;-79
2023/12/02 07:40:58;;;;;;;17.48;6.82;;;;;;;5.76;69.12;97948.19;7763017;32;37568;-80
2023/12/02 07:45:15;;;;;;;18.45;7.07;;;;;;;6.02;68.39;97924.44;7763183;32;37007;-80
2023/12/02 07:49:31;;;;;;;18.30;6.50;;;;;;;6.03;67.84;97906.31;7762953;32;40007;-79
2023/12/02 07:53:48;;;;;;;17.58;6.90;;;;;;;5.90;68.21;97935.63;7762843;32;40021;-79
2023/12/02 07:58:05;;;;;;;19.42;7.32;;;;;;;6.08;68.20;97941.41;7762690;32;38545;-78
2023/12/02 08:02:21;;;;;;;18.62;8.35;;;;;;;5.96;68.62;97929.06;7762642;32;37225;-80
2023/12/02 08:06:39;;;;;;;24.63;7.60;;;;;;;5.99;68.68;97939.31;7766481;32;38992;-80
2023/12/02 08:10:55;;;;;;;32.33;8.25;;;;;;;6.18;68.27;97925.06;7765307;32;40016;-77
2023/12/02 08:15:11;;;;;;;21.35;8.57;;;;;;;6.06;67.81;97939.00;7766399;32;37910;-77
2023/12/02 08:19:28;;;;;;;15.02;7.75;;;;;;;6.20;68.40;97939.09;7766409;32;36810;-78
2023/12/02 08:23:45;;;;;;;23.33;7.65;;;;;;;6.22;68.36;97942.31;7766545;32;39917;-77
2023/12/02 08:28:01;;;;;;;18.87;7.03;;;;;;;6.34;68.28;97950.03;7766213;32;40825;-73
2023/12/02 08:32:17;;;;;;;20.77;8.07;;;;;;;6.78;70.85;97954.38;7766069;32;37900;-83
2023/12/02 08:36:33;;;;;;;15.50;7.43;;;;;;;7.07;72.06;97956.94;7767216;32;38133;-83
2023/12/02 08:40:50;;;;;;;14.18;7.70;;;;;;;7.13;69.48;97963.88;7766238;32;39133;-81
2023/12/02 08:45:07;;;;;;;25.10;7.50;;;;;;;7.04;67.96;97962.94;7766126;32;40027;-84
2023/12/02 08:49:23;;;;;;;19.05;7.50;;;;;;;7.07;67.67;97966.94;7765970;32;38629;-83
2023/12/02 08:53:40;;;;;;;21.37;7.90;;;;;;;7.22;66.97;97971.34;7766135;32;37804;-83
2023/12/02 08:57:56;;;;;;;17.83;7.65;;;;;;;6.82;67.91;97976.25;7765857;32;39827;-81
2023/12/02 09:02:12;;;;;;;17.60;7.50;;;;;;;6.89;67.57;97982.13;7765860;32;41729;-82
2023/12/02 09:06:29;;;;;;;17.48;7.62;;;;;;;6.93;67.47;97972.28;7765639;32;37781;-82
2023/12/02 09:10:45;;;;;;;23.17;7.97;;;;;;;6.89;67.94;97952.31;7765789;32;37789;-82
2023/12/02 09:15:17;;;;;;;33.40;8.35;;;;;;;7.14;67.03;97956.56;7765553;32;39204;-81
2023/12/02 09:19:53;;;;;;;19.42;9.25;;;;;;;7.13;66.96;97955.75;7765698;32;40927;-81
2023/12/02 09:24:37;;;;;;;30.23;11.20;;;;;;;7.12;67.25;97975.84;7765629;32;36780;-81
2023/12/02 09:28:56;;;;;;;52.35;13.25;;;;;;;7.22;66.68;97979.47;7765531;32;37162;-83
2023/12/02 09:33:13;;;;;;;36.53;12.43;;;;;;;6.78;67.90;97984.16;7765740;32;39411;-82
2023/12/02 09:37:55;;;;;;;28.05;12.25;;;;;;;6.72;67.85;97985.31;7765356;32;40070;-82
2023/12/02 09:42:11;;;;;;;39.85;16.48;;;;;;;6.74;67.05;97981.22;7765121;32;37923;-82
2023/12/02 09:46:52;;;;;;;44.13;15.13;;;;;;;6.85;66.49;97967.56;7764165;32;36885;-83
2023/12/02 09:51:40;;;;;;;46.47;21.05;;;;;;;6.74;66.95;97964.97;7765416;32;39093;-82
2023/12/02 09:56:01;;;;;;;48.80;13.02;;;;;;;6.89;66.54;97952.31;7738673;32;39596;-83
2023/12/02 10:00:32;;;;;;;28.98;13.73;;;;;;;6.55;67.70;97956.00;7763924;32;38134;-83
2023/12/02 10:05:06;;;;;;;62.88;16.48;;;;;;;6.60;67.44;97965.97;7765164;32;37103;-79
2023/12/02 10:09:31;;;;;;;49.25;16.12;;;;;;;6.72;67.25;97959.03;7764058;32;39264;-82
2023/12/02 10:14:14;;;;;;;30.65;13.52;;;;;;;6.46;68.47;97957.75;7764972;32;40041;-82
2023/12/02 10:18:34;;;;;;;27.52;13.55;;;;;;;6.44;68.26;97959.94;7764913;32;37575;-80
2023/12/02 10:22:57;;;;;;;25.33;13.55;;;;;;;6.53;68.04;97963.63;7764762;32;37928;-82
2023/12/02 10:27:18;;;;;;;32.97;13.05;;;;;;;6.65;67.58;97945.03;7764250;32;40100;-82
2023/12/02 10:31:38;;;;;;;236.15;17.23;;;;;;;6.54;67.92;97930.03;7764741;32;40353;-83
2023/12/02 10:36:02;;;;;;;148.60;14.65;;;;;;;6.69;67.66;97929.00;7764880;32;37935;-83
2023/12/02 10:40:21;;;;;;;184.63;18.85;;;;;;;6.91;70.98;97928.44;7763316;32;37957;-82
2023/12/02 10:44:41;;;;;;;185.68;17.95;;;;;;;6.76;69.24;97926.75;7762929;32;40518;-84
2023/12/02 10:49:00;;;;;;;145.98;17.23;;;;;;;6.63;69.24;97922.06;7763435;32;38970;-83
2023/12/02 10:53:20;;;;;;;276.15;19.98;;;;;;;6.72;68.04;97904.84;7757649;32;38549;-83
2023/12/02 10:57:37;;;;;;;155.48;24.10;;;;;;;6.88;67.44;97919.00;7738670;32;37911;-84
2023/12/02 11:02:06;;;;;;;238.18;24.00;;;;;;;6.34;68.71;97902.12;7735370;32;39341;-80
2023/12/02 11:06:40;;;;;;;141.70;15.88;;;;;;;6.48;68.71;97882.47;7736370;32;40755;-81
2023/12/02 11:10:58;;;;;;;269.77;19.25;;;;;;;6.56;68.60;97881.81;7736939;32;37822;-83
2023/12/02 11:15:15;;;;;;;240.05;19.52;;;;;;;6.19;70.15;97900.44;7735526;32;37974;-83
2023/12/02 11:20:09;;;;;;;71.30;12.13;;;;;;;6.49;68.82;97876.75;7735132;32;39324;-82
2023/12/02 11:24:50;;;;;;;80.70;12.25;;;;;;;6.67;67.80;97867.03;7679678;32;39870;-83
2023/12/02 11:29:30;;;;;;;34.25;11.40;;;;;;;6.68;67.67;97857.00;7736263;32;38593;-84
2023/12/02 11:34:23;;;;;;;57.42;11.48;;;;;;;6.70;67.39;97852.91;7714482;32;37646;-84
2023/12/02 11:38:55;;;;;;;;;;;;;;;6.57;68.00;97856.34;7737211;32;39018;-84
2023/12/02 11:43:42;;;;;;;186.95;16.75;;;;;;;6.65;67.53;97850.28;7739689;32;40613;-82
2023/12/02 11:48:26;;;;;;;122.30;13.57;;;;;;;6.49;67.74;97854.31;7739052;32;38540;-80
2023/12/02 11:52:44;;;;;;;;;;;;;;;6.28;68.73;97876.22;7738791;32;37223;-84
2023/12/02 11:57:11;;;;;;;72.15;13.65;;;;;;;6.03;69.87;97871.12;7761598;32;40023;-84
2023/12/02 12:01:56;;;;;;;32.92;14.18;;;;;;;6.47;68.04;97873.53;7768214;32;40727;-80
2023/12/02 12:06:50;;;;;;;26.77;13.65;;;;;;;6.19;68.63;97867.13;7766942;32;38662;-80
2023/12/02 12:11:10;;;;;;;33.25;11.98;;;;;;;5.89;69.98;97871.78;7771730;32;37117;-82
2023/12/02 12:15:26;;;;;;;137.68;15.35;;;;;;;6.05;68.80;97883.25;7769071;32;39892;-82
2023/12/02 12:19:42;;;;;;;50.53;11.48;;;;;;;5.95;68.98;97878.75;7767325;32;39912;-81
2023/12/02 12:23:59;;;;;;;197.02;18.52;;;;;;;5.85;69.48;97868.06;7778791;32;38041;-80
2023/12/02 12:28:15;;;;;;;188.00;17.12;;;;;;;6.05;68.68;97856.22;7780368;32;37311;-79
2023/12/02 12:32:32;;;;;;;216.63;18.55;;;;;;;5.92;68.55;97849.59;7780425;32;39359;-82
2023/12/02 12:36:48;;;;;;;131.23;13.98;;;;;;;5.87;68.55;97860.47;7766169;32;40643;-80
2023/12/02 12:41:07;;;;;;;154.82;14.90;;;;;;;5.92;68.78;97873.91;7764761;32;38423;-80
2023/12/02 12:45:23;;;;;;;92.90;14.57;;;;;;;5.80;70.20;97878.94;7763237;32;37282;-81
2023/12/02 12:49:43;;;;;;;42.50;11.07;;;;;;;5.94;69.08;97876.34;7776348;32;39200;-78
2023/12/02 12:54:06;;;;;;;16.55;8.40;;;;;;;5.72;69.31;97877.66;7772206;32;40089;-78
2023/12/02 12:58:26;;;;;;;13.68;7.87;;;;;;;5.84;69.03;97866.44;7765308;32;37540;-79
2023/12/02 13:03:00;;;;;;;13.38;6.75;;;;;;;5.97;68.45;97863.06;7777571;32;37706;-78
2023/12/02 13:07:17;;;;;;;10.30;6.03;;;;;;;6.06;67.61;97878.69;7782009;32;39824;-79
2023/12/02 13:11:55;;;;;;;14.30;7.87;;;;;;;4.86;72.06;97923.22;7765254;32;39950;-80
2023/12/02 13:16:13;;;;;;;17.02;8.10;;;;;;;5.07;71.08;97907.69;7764644;32;37628;-80
2023/12/02 13:20:32;;;;;;;17.55;9.85;;;;;;;5.04;70.63;97916.38;7757755;32;37895;-80
2023/12/02 13:24:59;;;;;;;17.75;7.60;;;;;;;5.40;69.70;97956.63;7767095;32;39120;-81
2023/12/02 13:29:21;;;;;;;15.77;8.00;;;;;;;5.31;70.06;97931.28;7766890;32;39983;-80
2023/12/02 13:33:46;;;;;;;16.42;7.57;;;;;;;4.76;72.69;97921.41;7765588;32;38630;-81
2023/12/02 13:38:06;;;;;;;19.75;10.18;;;;;;;5.02;71.97;97888.84;7765633;32;37766;-81
2023/12/02 13:42:32;;;;;;;17.02;8.27;;;;;;;5.03;71.48;97909.34;7780465;32;39187;-79
2023/12/02 13:47:08;;;;;;;16.10;8.23;;;;;;;5.21;71.20;97905.16;7792740;32;39787;-80
2023/12/02 13:51:37;;;;;;;22.80;12.60;;;;;;;5.03;71.19;97944.47;7781742;32;37027;-79
2023/12/02 13:56:26;;;;;;;19.25;10.32;;;;;;;4.63;72.77;97957.13;7764141;32;37653;-81
2023/12/02 14:00:49;;;;;;;16.00;8.48;;;;;;;4.09;75.16;97991.84;7764305;32;38911;-80
2023/12/02 14:05:13;;;;;;;20.35;10.90;;;;;;;3.61;76.80;97999.44;7769436;32;40011;-78
2023/12/02 14:09:31;;;;;;;18.12;9.65;;;;;;;3.65;77.87;97980.84;7752081;32;38606;-80
2023/12/02 14:14:09;;;;;;;17.10;9.40;;;;;;;3.15;78.92;98010.97;7754338;32;36474;-80
2023/12/02 14:18:28;;;;;;;20.55;10.13;;;;;;;3.15;78.70;98020.97;7765246;32;39339;-80
2023/12/02 14:23:12;;;;;;;17.73;10.50;;;;;;;3.01;78.77;98024.16;7765062;32;39932;-81
2023/12/02 14:27:41;;;;;;;19.87;11.85;;;;;;;3.24;78.71;97992.41;7766826;32;37847;-81
2023/12/02 14:32:27;;;;;;;18.85;11.73;;;;;;;3.08;77.40;98017.72;7779175;32;38043;-78
2023/12/02 14:37:05;;;;;;;15.00;8.55;;;;;;;2.37;80.73;98040.59;7780203;32;39897;-79
2023/12/02 14:41:43;;;;;;;18.10;9.65;;;;;;;2.56;80.12;98062.47;7781355;32;40514;-79
2023/12/02 14:45:59;;;;;;;13.68;8.55;;;;;;;2.60;79.54;98015.97;7778963;32;38646;-80
2023/12/02 14:50:16;;;;;;;14.20;9.20;;;;;;;2.71;79.03;98042.87;7791692;32;36697;-81
2023/12/02 14:54:36;;;;;;;16.37;10.20;;;;;;;2.65;78.92;98033.19;7785754;32;39152;-81
2023/12/02 14:58:58;;;;;;;21.20;11.80;;;;;;;1.94;80.40;98055.94;7777149;32;38565;-80
2023/12/02 15:03:14;;;;;;;25.02;13.32;;;;;;;1.72;79.53;98081.00;7787968;32;38642;-79
2023/12/02 15:07:43;;;;;;;23.70;13.93;;;;;;;1.96;80.18;98064.53;7757122;32;37074;-76
2023/12/02 15:12:03;;;;;;;27.55;15.18;;;;;;;1.60;79.50;98050.81;7782491;32;39338;-77
2023/12/02 15:16:20;;;;;;;29.12;16.02;;;;;;;1.85;77.93;98021.47;7768809;32;40062;-78
2023/12/02 15:20:48;;;;;;;32.40;16.83;;;;;;;2.16;77.25;98023.56;7775308;32;37606;-77
2023/12/02 15:25:09;;;;;;;28.12;15.73;;;;;;;1.87;77.07;97986.28;7775172;32;37604;-79
2023/12/02 15:29:25;;;;;;;34.78;17.83;;;;;;;1.72;78.23;98031.84;7785106;32;39906;-78
2023/12/02 15:33:44;;;;;;;26.62;15.52;;;;;;;1.24;80.70;98037.91;7785865;32;40756;-77
2023/12/02 15:38:01;;;;;;;32.38;17.37;;;;;;;1.77;78.84;98081.06;7794301;32;37890;-82
2023/12/02 15:42:17;;;;;;;33.72;17.33;;;;;;;1.43;80.76;98126.13;7780996;32;37208;-79
2023/12/02 15:46:34;;;;;;;37.00;20.37;;;;;;;1.38;80.22;98123.38;7766862;32;39663;-79
2023/12/02 15:50:50;;;;;;;32.90;19.30;;;;;;;1.52;78.72;98070.91;7769273;32;40592;-81
2023/12/02 15:55:07;;;;;;;35.83;19.52;;;;;;;1.40;78.46;98089.88;7767954;32;38623;-78
2023/12/02 15:59:23;;;;;;;39.60;20.75;;;;;;;1.31;78.66;98032.28;7779943;32;37294;-79
2023/12/02 16:03:49;;;;;;;30.70;15.82;;;;;;;0.77;80.24;98110.09;7763266;32;39250;-78
2023/12/02 16:08:08;;;;;;;26.73;13.68;;;;;;;0.93;81.33;98114.56;7768809;32;40750;-76
2023/12/02 16:12:24;;;;;;;32.03;18.12;;;;;;;0.81;81.92;98132.66;7793263;32;37882;-77
2023/12/02 16:16:41;;;;;;;34.42;17.37;;;;;;;0.64;82.53;98155.00;7772367;32;37759;-77
2023/12/02 16:20:58;;;;;;;25.33;16.90;;;;;;;0.98;80.60;98210.44;7767040;32;39883;-77
2023/12/02 16:25:15;;;;;;;27.13;16.98;;;;;;;0.89;80.81;98234.19;7752687;32;40633;-77
2023/12/02 16:29:33;;;;;;;29.42;16.87;;;;;;;0.71;81.39;98233.41;7753105;32;38734;-76
2023/12/02 16:33:50;;;;;;;27.13;17.17;;;;;;;0.88;79.86;98228.03;7752481;32;37946;-77
2023/12/02 16:38:08;;;;;;;27.10;15.98;;;;;;;1.62;77.15;98239.41;7766185;32;39826;-77
2023/12/02 16:42:26;;;;;;;28.27;17.55;;;;;;;1.04;78.14;98229.03;7766728;32;39744;-77
2023/12/02 16:46:43;;;;;;;27.70;16.17;;;;;;;0.89;78.10;98234.19;7766148;32;37376;-81
2023/12/02 16:50:59;;;;;;;26.77;15.77;;;;;;;0.50;79.02;98237.66;7768845;32;38098;-82
2023/12/02 16:55:16;;;;;;;24.50;14.85;;;;;;;0.52;78.25;98218.66;7765680;32;39884;-81
2023/12/02 16:59:48;;;;;;;26.65;14.93;;;;;;;0.51;78.17;98222.38;7786034;32;40798;-82
2023/12/02 17:04:05;;;;;;;24.00;14.85;;;;;;;0.69;76.55;98237.38;7793052;32;37932;-82
2023/12/02 17:08:27;;;;;;;27.83;15.40;;;;;;;0.52;76.33;98283.00;7792980;32;37203;-81
2023/12/02 17:12:47;;;;;;;25.33;15.95;;;;;;;0.11;76.09;98267.03;7752613;32;39938;-79
2023/12/02 17:17:05;;;;;;;23.20;14.05;;;;;;;0.28;75.46;98282.34;7765772;32;40800;-80
2023/12/02 17:21:44;;;;;;;30.88;15.93;;;;;;;0.65;73.77;98271.94;7751630;32;40057;-81
2023/12/02 17:26:01;;;;;;;20.75;12.40;;;;;;;-0.19;75.67;98283.34;7764653;32;37220;-81
2023/12/02 17:30:17;;;;;;;21.27;13.98;;;;;;;0.11;74.17;98309.09;7763854;32;39269;-81
2023/12/02 17:34:36;;;;;;;22.95;14.02;;;;;;;-0.27;75.44;98307.84;7765553;32;39603;-83
2023/12/02 17:38:52;;;;;;;26.50;15.10;;;;;;;-0.14;74.95;98298.69;7764121;32;37369;-82
2023/12/02 17:43:08;;;;;;;26.90;15.07;;;;;;;-0.17;74.55;98297.31;7767265;32;37142;-80
2023/12/02 17:47:25;;;;;;;19.62;12.25;;;;;;;-0.83;75.76;98312.81;7792177;32;39180;-80
2023/12/02 17:51:42;;;;;;;29.37;16.58;;;;;;;-0.49;74.80;98287.03;7790916;32;40141;-78
2023/12/02 17:55:58;;;;;;;30.12;17.05;;;;;;;-0.61;75.82;98291.59;7792156;32;37905;-77
2023/12/02 18:00:16;;;;;;;14.43;9.98;;;;;;;-0.77;76.47;98288.59;7775623;32;37045;-78
2023/12/02 18:04:34;;;;;;;27.87;14.02;;;;;;;-0.60;75.33;98303.97;7770056;32;38261;-82
2023/12/02 18:08:53;;;;;;;22.20;13.10;;;;;;;-0.72;75.84;98305.84;7792481;32;39659;-81
2023/12/02 18:13:10;;;;;;;26.83;15.95;;;;;;;-0.45;75.16;98315.00;7792332;32;38693;-84
2023/12/02 18:17:26;;;;;;;26.73;15.55;;;;;;;-0.14;75.13;98334.31;7783356;32;37103;-83
2023/12/02 18:21:46;;;;;;;29.37;16.42;;;;;;;-0.44;74.19;98329.19;7764799;32;39915;-83
2023/12/02 18:26:05;;;;;;;28.62;14.80;;;;;;;0.05;72.10;98339.50;7764907;32;40676;-82
2023/12/02 18:30:21;;;;;;;24.25;14.40;;;;;;;0.00;71.99;98375.09;7764799;32;37811;-82
2023/12/02 18:34:38;;;;;;;24.83;14.82;;;;;;;-0.29;72.27;98379.56;7764762;32;36956;-81
2023/12/02 18:38:54;;;;;;;25.30;15.43;;;;;;;-0.15;72.01;98386.28;7768504;32;39243;-78
2023/12/02 18:43:11;;;;;;;26.60;15.23;;;;;;;0.03;71.26;98389.84;7791229;32;40779;-77
2023/12/02 18:47:27;;;;;;;19.77;13.25;;;;;;;0.02;71.82;98399.78;7766256;32;37968;-79
2023/12/02 18:51:43;;;;;;;26.62;13.52;;;;;;;-0.28;72.40;98413.31;7778515;32;37042;-77
2023/12/02 18:55:59;;;;;;;23.58;13.13;;;;;;;0.30;73.50;98417.75;7767770;32;179143;-83
2023/12/02 19:00:16;;;;;;;24.33;12.95;;;;;;;0.17;72.03;98431.41;7775785;32;39740;-81
2023/12/02 19:04:33;;;;;;;20.37;11.75;;;;;;;-0.44;72.58;98437.09;7790777;32;37847;-84
2023/12/02 19:08:50;;;;;;;24.17;14.32;;;;;;;0.01;70.61;98432.16;7771697;32;38007;-84
2023/12/02 19:13:07;;;;;;;23.50;13.02;;;;;;;-0.44;71.53;98457.72;7763895;32;39148;-84
2023/12/02 19:17:23;;;;;;;20.88;12.73;;;;;;;0.25;69.39;98460.53;7763782;32;39979;-82
2023/12/02 19:21:40;;;;;;;26.30;13.25;;;;;;;-0.30;70.83;98495.78;7763305;32;38057;-81
2023/12/02 19:25:58;;;;;;;24.23;12.98;;;;;;;-0.09;69.90;98492.50;7763521;32;37959;-79
2023/12/02 19:30:15;;;;;;;21.95;12.73;;;;;;;-0.01;69.26;98520.81;7787529;32;40082;-78
2023/12/02 19:34:31;;;;;;;20.60;11.75;;;;;;;-0.60;71.93;98529.63;7780378;32;39812;-79
2023/12/02 19:38:48;;;;;;;20.55;11.40;;;;;;;0.03;71.75;98547.97;7775207;32;39131;-79
2023/12/02 19:43:04;;;;;;;18.30;11.38;;;;;;;-0.03;69.43;98563.13;7762953;32;36961;-80
2023/12/02 19:47:21;;;;;;;17.95;11.27;;;;;;;0.26;68.97;98564.03;7762813;32;39955;-81
2023/12/02 19:51:38;;;;;;;21.10;12.05;;;;;;;0.29;67.85;98595.72;7781955;32;39705;-78
2023/12/02 19:55:54;;;;;;;20.67;11.52;;;;;;;-0.39;69.80;98635.38;7768789;32;38463;-83
2023/12/02 20:00:12;;;;;;;19.25;10.48;;;;;;;0.29;67.25;98611.81;7765192;32;37082;-81
2023/12/02 20:04:31;;;;;;;19.00;11.05;;;;;;;-0.06;67.35;98595.72;7765704;32;39339;-84
2023/12/02 20:08:50;;;;;;;16.87;10.13;;;;;;;0.41;66.08;98624.41;7767537;32;40756;-82
2023/12/02 20:13:07;;;;;;;16.27;9.57;;;;;;;0.28;66.21;98653.09;7767676;32;38757;-83
2023/12/02 20:17:23;;;;;;;16.27;9.88;;;;;;;0.05;66.14;98643.13;7765488;32;37084;-80